Time;durP1;ratioP1;P1;durP2;ratioP2;P2;SDS_P1;SDS_P2;PMS_P1;PMS_P2;Temp;Humidity;BMP_temperature;BMP_pressure;BME280_temperature;BME280_humidity;BME280_pressure;Samples;Min_cycle;Max_cycle;Signal;HPM_P1;HPM_P2
2021/05/01 00:00:05;;;;;;;43.20;32.03;;;9.80;99.90;;;;;;5093294;28;20195;-67
2021/05/01 00:02:31;;;;;;;42.20;32.20;;;9.60;98.10;;;;;;5092985;28;20173;-67
2021/05/01 00:04:57;;;;;;;44.43;33.23;;;9.60;99.90;;;;;;5093342;28;20479;-67
2021/05/01 00:07:22;;;;;;;48.70;32.53;;;9.80;99.90;;;;;;5093020;28;20167;-67
2021/05/01 00:09:48;;;;;;;44.17;32.37;;;9.60;99.90;;;;;;5092948;28;20686;-68
2021/05/01 00:12:14;;;;;;;41.67;31.50;;;9.60;99.90;;;;;;5093245;28;20688;-67
2021/05/01 00:14:39;;;;;;;43.83;33.13;;;9.60;99.90;;;;;;5092883;28;20209;-67
2021/05/01 00:17:05;;;;;;;45.57;34.20;;;9.60;1.00;;;;;;5092895;28;20168;-68
2021/05/01 00:19:31;;;;;;;43.63;35.13;;;9.80;99.90;;;;;;5091537;28;20198;-67
2021/05/01 00:21:56;;;;;;;50.97;34.00;;;9.70;99.90;;;;;;5091555;28;20493;-68
2021/05/01 00:24:22;;;;;;;48.00;35.40;;;9.60;99.90;;;;;;5092769;28;20424;-67
2021/05/01 00:26:47;;;;;;;48.47;35.33;;;9.40;99.90;;;;;;5093082;28;20162;-67
2021/05/01 00:29:13;;;;;;;47.40;34.40;;;9.40;99.90;;;;;;5092731;28;20168;-67
2021/05/01 00:31:38;;;;;;;52.17;35.93;;;9.40;99.90;;;;;;5092759;28;20203;-67
2021/05/01 00:34:04;;;;;;;45.00;35.83;;;9.60;99.90;;;;;;5092934;28;20198;-67
2021/05/01 00:36:30;;;;;;;49.10;34.77;;;9.70;99.90;;;;;;5092745;28;20250;-67
2021/05/01 00:38:57;;;;;;;42.70;32.30;;;9.80;99.90;;;;;;5092717;28;20280;-67
2021/05/01 00:41:22;;;;;;;46.80;34.97;;;9.80;14.10;;;;;;5093001;28;20442;-67
2021/05/01 00:43:48;;;;;;;46.17;32.50;;;9.80;58.90;;;;;;5092668;28;20431;-67
2021/05/01 00:46:14;;;;;;;41.73;33.27;;;9.70;1.00;;;;;;5092653;28;20416;-68
2021/05/01 00:48:39;;;;;;;40.57;31.13;;;9.60;1.00;;;;;;5092648;28;20421;-67
2021/05/01 00:51:05;;;;;;;47.00;34.03;;;9.50;1.00;;;;;;5092616;28;20194;-67
2021/05/01 00:53:32;;;;;;;43.77;33.60;;;9.60;46.70;;;;;;5092795;28;20668;-67
2021/05/01 00:55:59;;;;;;;48.40;34.20;;;9.60;92.00;;;;;;5092891;28;20249;-67
2021/05/01 00:58:24;;;;;;;48.00;35.47;;;9.50;56.50;;;;;;5092569;28;20398;-67
2021/05/01 01:03:39;;;;;;;47.10;33.53;;;9.80;1.00;;;;;;5092685;28;20195;-67
2021/05/01 01:06:06;;;;;;;44.30;32.60;;;9.80;1.00;;;;;;5092729;28;20481;-67
2021/05/01 01:08:31;;;;;;;46.27;31.80;;;9.80;1.00;;;;;;5092459;28;20437;-67
2021/05/01 01:10:57;;;;;;;42.30;31.30;;;9.50;1.00;;;;;;5092644;28;20492;-67
2021/05/01 01:13:23;;;;;;;49.10;30.30;;;9.30;3.40;;;;;;5092417;28;20163;-67
2021/05/01 01:15:48;;;;;;;44.47;29.47;;;9.70;99.90;;;;;;5094888;28;20475;-67
2021/05/01 01:18:14;;;;;;;43.90;30.47;;;9.70;55.70;;;;;;5096135;28;20263;-67
2021/05/01 01:20:40;;;;;;;37.00;29.97;;;9.80;3.10;;;;;;5096452;28;20195;-68
2021/05/01 01:23:06;;;;;;;42.60;30.70;;;9.80;1.00;;;;;;5096179;28;20179;-67
2021/05/01 01:25:31;;;;;;;41.80;31.30;;;9.80;1.00;;;;;;5095936;28;20455;-67
2021/05/01 01:27:59;;;;;;;40.87;28.63;;;9.90;1.00;;;;;;5096224;28;20180;-67
2021/05/01 01:30:26;;;;;;;39.70;29.53;;;9.80;1.00;;;;;;5095849;28;20699;-68
2021/05/01 01:32:52;;;;;;;37.93;28.43;;;9.80;1.00;;;;;;5096104;28;20408;-68
2021/05/01 01:35:18;;;;;;;43.77;31.43;;;9.80;1.00;;;;;;5095740;28;20421;-68
2021/05/01 01:37:45;;;;;;;46.73;31.30;;;9.80;1.00;;;;;;5095994;28;20171;-67
2021/05/01 01:40:12;;;;;;;44.53;31.10;;;9.70;1.00;;;;;;5095924;28;20449;-67
2021/05/01 01:42:40;;;;;;;39.30;30.03;;;9.60;1.00;;;;;;5095713;28;20405;-68
2021/05/01 01:45:07;;;;;;;44.03;30.30;;;9.80;1.00;;;;;;5095513;28;20426;-68
2021/05/01 01:47:32;;;;;;;41.57;30.73;;;9.80;1.00;;;;;;5095548;28;20390;-68
2021/05/01 01:49:58;;;;;;;38.87;30.47;;;9.80;1.00;;;;;;5095550;28;20497;-67
2021/05/01 01:52:24;;;;;;;41.63;30.03;;;9.80;1.00;;;;;;5095504;28;20199;-67
2021/05/01 01:54:49;;;;;;;44.07;32.60;;;9.80;1.00;;;;;;5094080;28;20564;-68
2021/05/01 01:57:15;;;;;;;37.80;30.10;;;9.50;1.00;;;;;;5095439;28;20247;-67
2021/05/01 01:59:40;;;;;;;44.87;33.60;;;9.30;43.60;;;;;;5095202;28;20209;-67
2021/05/01 02:02:06;;;;;;;43.30;30.77;;;9.40;99.90;;;;;;5095588;28;20163;-68
2021/05/01 02:04:32;;;;;;;40.57;32.00;;;9.50;82.00;;;;;;5095430;28;20191;-67
2021/05/01 02:06:57;;;;;;;39.50;30.27;;;9.60;29.90;;;;;;5095558;28;20225;-68
2021/05/01 02:09:23;;;;;;;39.90;31.77;;;9.70;1.00;;;;;;5095140;28;20183;-68
2021/05/01 02:11:48;;;;;;;50.40;32.23;;;9.70;1.00;;;;;;5095745;28;20229;-67
2021/05/01 02:14:14;;;;;;;44.70;33.80;;;9.50;1.00;;;;;;5095202;28;20192;-67
2021/05/01 02:16:40;;;;;;;42.80;32.03;;;9.30;12.30;;;;;;5095353;28;20171;-67
2021/05/01 02:19:05;;;;;;;47.23;33.23;;;9.10;99.90;;;;;;5094994;28;20596;-68
2021/05/01 02:21:31;;;;;;;45.23;32.70;;;9.30;99.90;;;;;;5094945;28;20540;-67
2021/05/01 02:23:56;;;;;;;40.03;32.43;;;9.10;99.90;;;;;;5094889;28;20227;-67
2021/05/01 02:26:22;;;;;;;45.03;35.30;;;9.00;99.90;;;;;;5094608;28;20272;-68
2021/05/01 02:28:47;;;;;;;48.50;33.67;;;8.80;99.90;;;;;;5094830;28;20172;-67
2021/05/01 02:31:13;;;;;;;51.33;34.80;;;8.80;99.90;;;;;;5095090;28;20226;-67
2021/05/01 02:33:39;;;;;;;52.30;36.00;;;8.70;99.90;;;;;;5094963;28;20670;-67
2021/05/01 02:36:05;;;;;;;50.33;35.70;;;8.70;99.90;;;;;;5094955;28;20177;-67
2021/05/01 02:38:31;;;;;;;45.30;33.97;;;8.80;99.90;;;;;;5095244;28;20164;-67
2021/05/01 02:40:56;;;;;;;45.93;34.20;;;8.70;99.90;;;;;;5094612;28;20405;-67
2021/05/01 02:43:22;;;;;;;49.50;34.40;;;8.60;99.90;;;;;;5094509;28;20394;-68
2021/05/01 02:45:48;;;;;;;50.50;36.90;;;8.80;99.90;;;;;;5094490;28;20163;-67
2021/05/01 02:48:13;;;;;;;49.33;35.63;;;8.90;99.90;;;;;;5094771;28;20159;-67
2021/05/01 02:50:40;;;;;;;60.33;35.97;;;8.90;99.90;;;;;;5094335;28;20176;-67
2021/05/01 02:53:05;;;;;;;51.90;35.87;;;8.90;99.90;;;;;;5094234;28;20171;-67
2021/05/01 02:55:32;;;;;;;46.93;35.93;;;9.10;99.90;;;;;;5094283;28;20429;-67
2021/05/01 02:57:58;;;;;;;46.33;35.10;;;9.10;99.90;;;;;;5094529;28;20175;-67
2021/05/01 03:00:25;;;;;;;52.77;35.70;;;8.90;84.50;;;;;;5094224;28;20553;-67
2021/05/01 03:02:51;;;;;;;46.10;35.67;;;8.70;99.90;;;;;;5094170;28;20160;-67
2021/05/01 03:05:17;;;;;;;49.93;35.90;;;8.80;99.90;;;;;;5093987;28;20421;-67
2021/05/01 03:07:43;;;;;;;46.57;34.83;;;8.80;99.90;;;;;;5092717;28;20169;-67
2021/05/01 03:10:29;;;;;;;51.80;37.00;;;8.80;99.90;;;;;;5094151;28;20155;-66
2021/05/01 03:12:55;;;;;;;52.50;36.77;;;8.70;99.90;;;;;;5094022;28;20361;-67
2021/05/01 03:15:22;;;;;;;48.80;36.90;;;8.70;99.90;;;;;;5093802;28;20424;-67
2021/05/01 03:17:47;;;;;;;48.50;35.97;;;8.70;99.90;;;;;;5093989;28;20401;-67
2021/05/01 03:20:15;;;;;;;51.30;35.77;;;8.70;99.90;;;;;;5093788;28;20471;-67
2021/05/01 03:22:41;;;;;;;54.33;38.23;;;8.50;99.90;;;;;;5093886;28;20807;-67
2021/05/01 03:25:08;;;;;;;52.70;36.60;;;8.40;99.90;;;;;;5093754;28;20420;-67
2021/05/01 03:27:35;;;;;;;48.63;35.77;;;8.40;99.90;;;;;;5093894;28;20487;-67
2021/05/01 03:30:01;;;;;;;51.20;37.90;;;8.40;99.90;;;;;;5093662;28;20421;-67
2021/05/01 03:32:27;;;;;;;50.07;36.60;;;8.30;99.90;;;;;;5093913;28;20439;-67
2021/05/01 03:34:53;;;;;;;50.43;37.03;;;8.20;99.90;;;;;;5093523;28;20187;-66
2021/05/01 03:37:19;;;;;;;49.60;34.30;;;8.20;99.90;;;;;;5092922;28;20507;-67
2021/05/01 03:39:44;;;;;;;53.50;36.70;;;8.30;99.90;;;;;;5093505;28;20503;-67
2021/05/01 03:42:10;;;;;;;51.90;38.27;;;8.30;99.90;;;;;;5093671;28;20233;-67
2021/05/01 03:44:36;;;;;;;51.70;36.23;;;8.30;99.90;;;;;;5093658;28;20758;-67
2021/05/01 03:47:01;;;;;;;50.80;38.60;;;8.10;99.90;;;;;;5093681;28;20199;-67
2021/05/01 03:49:27;;;;;;;51.93;36.17;;;8.00;99.90;;;;;;5093392;28;20642;-67
2021/05/01 03:51:52;;;;;;;53.43;37.53;;;8.10;99.90;;;;;;5093600;28;20168;-67
2021/05/01 03:54:18;;;;;;;50.07;36.23;;;8.00;99.90;;;;;;5093208;28;20736;-67
2021/05/01 03:56:44;;;;;;;49.17;37.97;;;7.90;1.00;;;;;;5093781;28;20591;-67
2021/05/01 03:59:09;;;;;;;51.40;38.43;;;8.00;1.00;;;;;;5093359;28;20279;-67
2021/05/01 04:01:35;;;;;;;52.10;37.80;;;7.90;99.90;;;;;;5093388;28;20168;-67
2021/05/01 04:04:01;;;;;;;50.70;38.20;;;7.90;1.00;;;;;;5093357;28;20180;-67
2021/05/01 04:06:26;;;;;;;50.57;37.00;;;8.00;1.00;;;;;;5093163;28;20577;-67
2021/05/01 04:08:52;;;;;;;56.27;37.57;;;8.00;1.00;;;;;;5092915;28;20190;-66
2021/05/01 04:11:17;;;;;;;53.27;38.77;;;8.00;1.00;;;;;;5093044;28;20171;-67
2021/05/01 04:13:47;;;;;;;52.10;38.13;;;7.90;1.00;;;;;;5093010;28;20187;-67
2021/05/01 04:16:17;;;;;;;56.93;38.50;;;7.90;1.00;;;;;;5093304;28;20631;-66
2021/05/01 04:18:43;;;;;;;55.07;39.17;;;7.90;1.00;;;;;;5093482;28;20400;-66
2021/05/01 04:21:09;;;;;;;53.85;39.50;;;7.80;1.00;;;;;;5092982;28;20423;-67
2021/05/01 04:23:35;;;;;;;64.63;41.77;;;7.90;1.00;;;;;;5093176;28;20215;-67
2021/05/01 04:26:01;;;;;;;58.20;37.40;;;7.80;1.00;;;;;;5092990;28;20510;-67
2021/05/01 04:28:27;;;;;;;53.60;39.33;;;7.90;1.00;;;;;;5092926;28;20656;-67
2021/05/01 04:30:56;;;;;;;64.88;41.65;;;7.90;1.00;;;;;;5093210;28;20182;-67
2021/05/01 04:33:22;;;;;;;58.95;39.45;;;8.00;1.00;;;;;;5092940;28;20199;-67
2021/05/01 04:35:48;;;;;;;53.22;38.83;;;8.20;1.00;;;;;;5093182;28;20206;-67
2021/05/01 04:38:15;;;;;;;59.40;39.87;;;8.20;99.90;;;;;;5092815;28;20168;-67
2021/05/01 04:40:41;;;;;;;62.40;44.80;;;8.30;99.90;;;;;;5092965;28;20445;-67
2021/05/01 04:43:08;;;;;;;49.87;37.90;;;8.40;99.90;;;;;;5092729;28;20906;-67
2021/05/01 04:45:35;;;;;;;58.50;39.60;;;8.40;99.90;;;;;;5092743;28;20160;-67
2021/05/01 04:48:01;;;;;;;70.03;42.42;;;8.30;99.90;;;;;;5092594;28;20398;-67
2021/05/01 04:50:26;;;;;;;63.70;41.83;;;8.20;99.90;;;;;;5096681;28;20178;-67
2021/05/01 04:52:52;;;;;;;59.83;41.40;;;8.00;99.90;;;;;;5096746;28;20174;-67
2021/05/01 04:55:17;;;;;;;59.00;40.30;;;8.30;1.00;;;;;;5096721;28;20674;-67
2021/05/01 04:57:43;;;;;;;66.70;42.30;;;8.40;99.90;;;;;;5096710;28;20562;-67
2021/05/01 05:00:11;;;;;;;76.60;43.10;;;8.30;99.90;;;;;;5096550;28;20195;-67
2021/05/01 05:02:38;;;;;;;63.90;42.90;;;8.20;99.90;;;;;;5096755;28;20439;-67
2021/05/01 05:05:04;;;;;;;58.00;41.97;;;8.20;99.90;;;;;;5096444;28;20432;-67
2021/05/01 05:07:30;;;;;;;57.40;42.20;;;8.00;99.90;;;;;;5096446;28;20167;-67
2021/05/01 05:09:56;;;;;;;56.00;41.20;;;8.00;99.90;;;;;;5096852;28;20741;-66
2021/05/01 05:12:21;;;;;;;58.70;44.83;;;7.90;99.90;;;;;;5096324;28;20171;-66
2021/05/01 05:14:47;;;;;;;61.40;43.40;;;7.90;1.00;;;;;;5096363;28;20195;-66
2021/05/01 05:17:13;;;;;;;65.63;44.10;;;7.90;1.00;;;;;;5096316;28;20171;-66
2021/05/01 05:19:38;;;;;;;59.03;42.80;;;7.80;99.90;;;;;;5096137;28;20596;-67
2021/05/01 05:22:04;;;;;;;66.37;44.87;;;7.60;1.00;;;;;;5096376;28;20178;-67
2021/05/01 05:24:30;;;;;;;64.20;44.07;;;7.80;1.00;;;;;;5095048;28;20279;-67
2021/05/01 05:26:55;;;;;;;75.80;46.90;;;7.80;1.00;;;;;;5096070;28;20171;-67
2021/05/01 05:29:21;;;;;;;74.73;47.20;;;8.10;1.00;;;;;;5096050;28;20202;-67
2021/05/01 05:31:46;;;;;;;68.60;45.37;;;8.00;99.90;;;;;;5095964;28;20580;-67
2021/05/01 05:34:12;;;;;;;71.90;44.07;;;8.00;99.90;;;;;;5096042;28;20184;-67
2021/05/01 05:36:39;;;;;;;72.70;47.33;;;7.90;99.90;;;;;;5096168;28;20567;-67
2021/05/01 05:39:05;;;;;;;65.65;44.03;;;7.90;1.00;;;;;;5096057;28;20726;-67
2021/05/01 05:41:31;;;;;;;69.38;45.10;;;7.90;99.90;;;;;;5095771;28;20205;-67
2021/05/01 05:43:57;;;;;;;73.13;43.40;;;7.70;1.00;;;;;;5095595;28;20560;-67
2021/05/01 05:46:23;;;;;;;66.53;45.07;;;7.60;1.00;;;;;;5095637;28;20187;-67
2021/05/01 05:48:48;;;;;;;71.10;46.43;;;8.00;1.00;;;;;;5095613;28;20298;-67
2021/05/01 05:51:14;;;;;;;66.63;46.50;;;8.10;99.90;;;;;;5095533;28;20172;-67
2021/05/01 05:53:39;;;;;;;64.90;44.17;;;8.20;99.90;;;;;;5095732;28;20613;-67
2021/05/01 05:56:07;;;;;;;68.63;42.10;;;8.40;99.90;;;;;;5095539;28;20267;-67
2021/05/01 05:58:33;;;;;;;59.03;39.60;;;8.30;99.90;;;;;;5095451;28;20200;-67
2021/05/01 06:00:58;;;;;;;59.53;40.90;;;8.30;99.90;;;;;;5094792;28;20512;-67
2021/05/01 06:03:25;;;;;;;56.70;38.70;;;8.10;99.90;;;;;;5095265;28;20433;-67
2021/05/01 06:05:55;;;;;;;65.60;39.47;;;8.50;50.00;;;;;;5095408;28;20214;-67
2021/05/01 06:08:22;;;;;;;62.58;41.83;;;8.00;62.20;;;;;;5095149;28;20739;-67
2021/05/01 06:10:48;;;;;;;59.10;40.47;;;8.20;99.10;;;;;;5095430;28;20275;-67
2021/05/01 06:13:16;;;;;;;57.35;39.78;;;8.20;96.50;;;;;;5095093;28;20221;-67
2021/05/01 06:15:43;;;;;;;46.70;33.85;;;8.20;95.00;;;;;;5095716;28;20639;-68
2021/05/01 06:18:11;;;;;;;53.20;35.58;;;8.10;48.40;;;;;;5095061;28;20263;-67
2021/05/01 06:20:36;;;;;;;47.95;31.40;;;8.30;99.90;;;;;;5094987;28;20210;-68
2021/05/01 06:23:02;;;;;;;53.63;34.50;;;8.80;1.00;;;;;;5094990;28;20640;-67
2021/05/01 06:25:29;;;;;;;53.30;33.10;;;8.90;1.00;;;;;;5094890;28;20273;-67
2021/05/01 06:27:55;;;;;;;52.28;33.95;;;8.80;1.00;;;;;;5094826;28;20920;-67
2021/05/01 06:30:22;;;;;;;52.72;33.85;;;8.70;1.00;;;;;;5094808;28;20232;-67
2021/05/01 06:32:49;;;;;;;47.50;34.60;;;8.80;1.00;;;;;;5094796;28;20165;-67
2021/05/01 06:35:14;;;;;;;52.03;33.22;;;9.10;1.00;;;;;;5094778;28;20426;-68
2021/05/01 06:37:41;;;;;;;49.13;34.67;;;9.30;1.00;;;;;;5094658;28;20184;-68
2021/05/01 06:40:11;;;;;;;53.80;36.50;;;9.30;1.00;;;;;;5094597;28;20206;-67
2021/05/01 06:42:48;;;;;;;57.92;35.10;;;9.30;1.00;;;;;;5094951;28;20437;-67
2021/05/01 06:45:16;;;;;;;50.53;34.20;;;8.90;1.00;;;;;;5094667;28;20186;-67
2021/05/01 06:47:52;;;;;;;53.00;35.67;;;8.60;1.00;;;;;;5094791;28;20960;-67
2021/05/01 06:50:26;;;;;;;51.33;36.87;;;8.60;1.00;;;;;;5094877;28;20238;-67
2021/05/01 06:52:51;;;;;;;54.42;37.08;;;9.10;1.00;;;;;;5094657;28;20440;-67
2021/05/01 06:55:19;;;;;;;55.63;36.90;;;8.90;1.00;;;;;;5094206;28;20593;-67
2021/05/01 06:57:46;;;;;;;51.20;36.97;;;9.30;1.00;;;;;;5094515;28;20593;-67
2021/05/01 07:00:14;;;;;;;48.80;33.22;;;8.80;1.00;;;;;;5094349;28;20538;-67
2021/05/01 07:02:44;;;;;;;48.40;32.40;;;8.80;1.00;;;;;;5094421;28;20220;-67
2021/05/01 07:05:11;;;;;;;49.10;33.20;;;9.20;1.00;;;;;;5094079;28;20438;-67
2021/05/01 07:07:37;;;;;;;47.87;33.10;;;9.40;1.00;;;;;;5094190;28;20410;-67
2021/05/01 07:10:05;;;;;;;42.97;29.30;;;9.30;1.00;;;;;;5094967;28;20398;-67
2021/05/01 07:12:32;;;;;;;39.03;25.92;;;9.10;1.00;;;;;;5092898;28;20189;-67
2021/05/01 07:15:01;;;;;;;44.53;28.92;;;9.30;1.00;;;;;;5093928;28;20192;-67
2021/05/01 07:17:27;;;;;;;38.30;26.70;;;9.50;1.00;;;;;;5094371;28;20262;-68
2021/05/01 07:19:54;;;;;;;28.07;21.70;;;9.50;1.00;;;;;;5094044;28;20459;-67
2021/05/01 07:22:20;;;;;;;39.67;22.17;;;9.20;1.00;;;;;;5093948;28;21043;-68
2021/05/01 07:24:45;;;;;;;34.87;24.33;;;8.70;1.00;;;;;;5093663;28;20221;-68
2021/05/01 07:27:11;;;;;;;29.23;23.27;;;8.80;1.00;;;;;;5093583;28;20221;-68
2021/05/01 07:29:39;;;;;;;34.95;22.60;;;8.80;1.00;;;;;;5093708;28;20175;-68
2021/05/01 07:32:07;;;;;;;31.10;22.92;;;9.10;1.00;;;;;;5092935;28;20173;-68
2021/05/01 07:34:34;;;;;;;34.58;23.30;;;9.10;1.00;;;;;;5093818;28;20190;-66
2021/05/01 07:37:06;;;;;;;35.72;23.67;;;9.10;1.00;;;;;;5093580;28;20182;-66
2021/05/01 07:39:33;;;;;;;26.13;21.23;;;9.80;1.00;;;;;;5094023;28;20218;-66
2021/05/01 07:42:00;;;;;;;31.17;21.27;;;9.70;1.00;;;;;;5093452;28;20410;-67
2021/05/01 07:44:28;;;;;;;29.20;22.10;;;9.60;1.00;;;;;;5092438;28;20425;-67
2021/05/01 07:46:55;;;;;;;29.50;19.87;;;9.70;1.00;;;;;;5093394;28;20508;-67
2021/05/01 07:49:21;;;;;;;31.67;20.33;;;9.50;1.00;;;;;;5093572;28;20414;-65
2021/05/01 07:51:46;;;;;;;26.30;18.17;;;9.50;1.00;;;;;;5093140;28;20973;-67
2021/05/01 07:54:13;;;;;;;25.20;19.03;;;9.30;99.90;;;;;;5093136;28;20231;-66
2021/05/01 07:56:39;;;;;;;21.77;18.20;;;9.20;99.90;;;;;;5093111;28;20227;-67
2021/05/01 07:59:05;;;;;;;20.77;17.10;;;9.50;99.90;;;;;;5091835;28;20460;-67
2021/05/01 08:01:31;;;;;;;27.70;18.23;;;9.50;99.90;;;;;;5093230;28;20405;-67
2021/05/01 08:03:57;;;;;;;22.40;17.70;;;10.30;99.90;;;;;;5093300;28;20191;-68
2021/05/01 08:06:23;;;;;;;23.70;18.00;;;10.60;99.90;;;;;;5093245;28;20455;-68
2021/05/01 08:08:49;;;;;;;27.10;16.70;;;10.60;99.90;;;;;;5092938;28;20199;-67
2021/05/01 08:11:15;;;;;;;23.60;18.43;;;10.30;99.90;;;;;;5092956;28;20527;-68
2021/05/01 08:13:41;;;;;;;18.30;15.30;;;10.50;99.90;;;;;;5092975;28;20597;-68
2021/05/01 08:16:07;;;;;;;25.37;17.00;;;10.60;99.90;;;;;;5092894;28;20444;-68
2021/05/01 08:18:32;;;;;;;22.10;16.87;;;10.80;99.90;;;;;;5092891;28;20510;-68
2021/05/01 08:20:58;;;;;;;19.10;14.70;;;10.20;99.90;;;;;;5093068;28;20191;-68
2021/05/01 08:23:23;;;;;;;23.23;14.80;;;10.10;99.90;;;;;;5092719;28;20699;-67
2021/05/01 08:25:49;;;;;;;23.33;14.90;;;9.90;99.90;;;;;;5099522;28;20169;-68
2021/05/01 08:28:16;;;;;;;18.00;13.73;;;10.10;99.90;;;;;;5099552;28;20663;-68
2021/05/01 08:30:41;;;;;;;20.67;14.70;;;10.40;99.90;;;;;;5100080;28;20583;-68
2021/05/01 08:33:07;;;;;;;19.10;16.37;;;10.60;99.90;;;;;;5099393;28;20405;-68
2021/05/01 08:35:32;;;;;;;17.80;14.53;;;10.50;99.90;;;;;;5099603;28;20171;-68
2021/05/01 08:37:58;;;;;;;18.80;14.50;;;10.60;99.90;;;;;;5099375;28;20179;-68
2021/05/01 08:40:24;;;;;;;20.57;14.67;;;11.20;99.90;;;;;;5099204;28;20723;-66
2021/05/01 08:42:49;;;;;;;20.77;14.73;;;10.70;99.90;;;;;;5099584;28;20249;-68
2021/05/01 08:45:18;;;;;;;18.00;14.67;;;11.00;99.90;;;;;;5099437;28;20547;-68
2021/05/01 08:47:46;;;;;;;18.00;14.47;;;11.30;99.90;;;;;;5099336;28;20769;-66
2021/05/01 08:50:47;;;;;;;22.00;14.77;;;11.70;99.90;;;;;;5099664;28;20417;-68
2021/05/01 08:53:12;;;;;;;16.47;13.97;;;12.10;99.90;;;;;;5095114;28;20420;-68
2021/05/01 08:55:39;;;;;;;15.90;12.57;;;12.10;99.90;;;;;;5099342;28;20910;-68
2021/05/01 08:58:07;;;;;;;18.70;12.53;;;10.90;99.90;;;;;;5099293;28;20527;-68
2021/05/01 09:00:35;;;;;;;18.00;13.53;;;10.60;99.90;;;;;;5099311;28;20470;-68
2021/05/01 09:03:02;;;;;;;18.70;14.03;;;10.80;99.90;;;;;;5099098;28;20405;-68
2021/05/01 09:05:28;;;;;;;18.90;12.13;;;11.10;99.90;;;;;;5099024;28;20510;-67
2021/05/01 09:07:56;;;;;;;17.70;13.63;;;11.70;99.90;;;;;;5097738;28;20420;-68
2021/05/01 09:10:23;;;;;;;15.90;11.67;;;11.40;99.90;;;;;;5099723;28;20390;-68
2021/05/01 09:12:49;;;;;;;14.50;12.27;;;12.30;99.90;;;;;;5099276;28;20436;-67
2021/05/01 09:15:22;;;;;;;17.47;12.57;;;12.60;99.90;;;;;;5099056;28;20994;-67
2021/05/01 09:17:57;;;;;;;15.00;10.87;;;11.90;99.90;;;;;;5097803;28;20504;-67
2021/05/01 09:20:23;;;;;;;21.13;13.20;;;12.40;99.90;;;;;;5099200;28;20435;-68
2021/05/01 09:22:58;;;;;;;14.90;12.03;;;12.10;99.90;;;;;;5099080;28;20420;-67
2021/05/01 09:25:26;;;;;;;17.93;12.40;;;11.90;99.90;;;;;;5097530;28;20455;-68
2021/05/01 09:27:59;;;;;;;17.53;11.07;;;12.50;99.90;;;;;;5097532;28;20401;-68
2021/05/01 09:30:27;;;;;;;11.37;9.53;;;12.20;99.90;;;;;;5099431;28;20401;-67
2021/05/01 09:33:23;;;;;;;11.60;7.80;;;12.10;99.90;;;;;;5098920;28;20898;-68
2021/05/01 09:35:56;;;;;;;7.77;6.80;;;12.40;99.90;;;;;;5096420;28;20480;-68
2021/05/01 09:38:21;;;;;;;13.00;8.60;;;13.30;99.90;;;;;;5095651;28;20470;-67
2021/05/01 09:40:48;;;;;;;12.67;8.63;;;13.70;99.90;;;;;;5095672;28;20797;-67
2021/05/01 09:43:15;;;;;;;15.43;11.17;;;13.80;99.90;;;;;;5095784;28;20536;-67
2021/05/01 09:45:41;;;;;;;19.67;12.90;;;12.70;99.90;;;;;;5095799;28;20434;-67
2021/05/01 09:48:16;;;;;;;15.23;10.60;;;13.10;99.90;;;;;;5095502;28;20798;-66
2021/05/01 09:50:42;;;;;;;17.53;12.17;;;12.60;99.90;;;;;;5095656;28;20156;-67
2021/05/01 09:53:12;;;;;;;15.23;12.60;;;13.60;99.90;;;;;;5095616;28;20432;-67
2021/05/01 09:55:45;;;;;;;23.73;14.00;;;12.90;99.90;;;;;;5095369;28;20409;-67
2021/05/01 09:58:22;;;;;;;15.13;12.33;;;13.10;99.90;;;;;;5095264;28;20969;-68
2021/05/01 10:00:50;;;;;;;14.23;10.90;;;13.60;99.90;;;;;;5095356;28;20460;-67
2021/05/01 10:03:27;;;;;;;15.03;10.70;;;13.00;99.90;;;;;;5095090;28;20766;-67
2021/05/01 10:06:00;;;;;;;12.80;11.50;;;12.30;99.90;;;;;;5095479;28;20413;-67
2021/05/01 10:08:29;;;;;;;11.43;9.67;;;12.50;99.90;;;;;;5095157;28;20960;-68
2021/05/01 10:10:55;;;;;;;14.63;10.40;;;13.10;99.90;;;;;;5095051;28;20410;-67
2021/05/01 10:13:22;;;;;;;12.33;9.50;;;13.60;99.90;;;;;;5094828;28;20410;-68
2021/05/01 10:15:48;;;;;;;14.53;11.50;;;14.30;99.90;;;;;;5095205;28;20405;-68
2021/05/01 10:18:18;;;;;;;19.00;12.80;;;13.40;99.90;;;;;;5095033;28;20937;-68
2021/05/01 10:20:49;;;;;;;17.03;12.73;;;13.60;99.90;;;;;;5095297;28;20533;-68
2021/05/01 10:23:18;;;;;;;17.63;14.20;;;13.80;99.90;;;;;;5095054;28;20402;-68
2021/05/01 10:25:46;;;;;;;19.93;13.60;;;14.00;99.90;;;;;;5094810;28;20406;-69
2021/05/01 10:28:16;;;;;;;15.47;12.17;;;14.90;99.90;;;;;;5094799;28;20436;-67
2021/05/01 10:30:57;;;;;;;11.70;10.40;;;14.50;99.90;;;;;;5095174;28;20424;-67
2021/05/01 10:33:26;;;;;;;14.87;13.27;;;14.70;99.90;;;;;;5095232;28;20761;-68
2021/05/01 10:36:31;;;;;;;15.40;12.03;;;14.90;99.90;;;;;;5094992;28;20415;-68
2021/05/01 10:39:06;;;;;;;17.57;12.43;;;14.90;99.90;;;;;;5095069;28;20398;-67
2021/05/01 10:41:32;;;;;;;16.07;12.87;;;14.50;99.90;;;;;;5094973;28;20597;-68
2021/05/01 10:43:59;;;;;;;20.00;13.40;;;14.40;99.90;;;;;;5094542;28;20428;-68
2021/05/01 10:46:31;;;;;;;20.77;14.23;;;15.30;99.90;;;;;;5094294;28;20425;-68
2021/05/01 10:48:59;;;;;;;15.93;11.50;;;15.40;99.90;;;;;;5094581;28;20392;-68
2021/05/01 10:51:28;;;;;;;17.50;12.90;;;15.40;99.90;;;;;;5094842;28;20819;-67
2021/05/01 10:54:21;;;;;;;15.87;12.87;;;15.80;99.90;;;;;;5094319;28;20857;-68
2021/05/01 10:56:49;;;;;;;14.20;11.30;;;15.60;99.90;;;;;;5094521;28;20390;-67
2021/05/01 10:59:18;;;;;;;16.20;11.67;;;15.50;99.90;;;;;;5094308;28;20445;-67
2021/05/01 11:01:48;;;;;;;13.37;10.23;;;15.10;99.90;;;;;;5094263;28;20419;-67
2021/05/01 11:04:24;;;;;;;12.67;11.37;;;16.10;99.90;;;;;;5094098;28;20421;-66
2021/05/01 11:06:50;;;;;;;15.00;11.40;;;15.70;99.90;;;;;;5093965;28;20410;-68
2021/05/01 11:09:42;;;;;;;12.70;11.20;;;14.60;99.90;;;;;;5093922;28;20435;-68
2021/05/01 11:12:10;;;;;;;16.33;12.97;;;15.10;99.90;;;;;;5094369;28;20386;-68
2021/05/01 11:14:47;;;;;;;17.50;13.10;;;14.80;99.90;;;;;;5094050;28;20927;-67
2021/05/01 11:17:31;;;;;;;17.23;11.37;;;15.40;99.90;;;;;;5094239;28;20392;-68
2021/05/01 11:20:00;;;;;;;13.17;10.53;;;15.90;99.90;;;;;;5093852;28;20444;-67
2021/05/01 11:22:27;;;;;;;12.17;10.50;;;15.00;99.90;;;;;;5093850;28;20444;-68
2021/05/01 11:24:56;;;;;;;14.17;11.40;;;15.20;99.90;;;;;;5093700;28;20434;-68
2021/05/01 11:27:23;;;;;;;13.03;10.10;;;15.60;99.90;;;;;;5093545;28;20402;-68
2021/05/01 11:29:50;;;;;;;16.20;12.47;;;14.70;99.90;;;;;;5093668;28;20505;-68
2021/05/01 11:32:17;;;;;;;12.60;10.13;;;15.30;99.90;;;;;;5093701;28;20462;-68
2021/05/01 11:34:47;;;;;;;13.83;12.00;;;15.40;99.90;;;;;;5093484;28;20418;-67
2021/05/01 11:37:12;;;;;;;14.97;11.60;;;14.80;99.90;;;;;;5093535;28;20408;-68
2021/05/01 11:39:40;;;;;;;13.60;10.60;;;15.70;99.90;;;;;;5093740;28;20445;-68
2021/05/01 11:42:06;;;;;;;17.80;12.10;;;15.10;99.90;;;;;;5093641;28;20561;-68
2021/05/01 11:44:32;;;;;;;13.97;10.20;;;15.30;99.90;;;;;;5093700;28;20427;-68
2021/05/01 11:47:11;;;;;;;12.93;10.80;;;14.30;99.90;;;;;;5093385;28;20414;-68
2021/05/01 11:49:37;;;;;;;16.70;12.07;;;14.60;99.90;;;;;;5093535;28;20401;-68
2021/05/01 11:52:31;;;;;;;13.57;11.10;;;15.60;99.90;;;;;;5093715;28;20406;-68
2021/05/01 11:55:20;;;;;;;12.90;10.80;;;15.90;99.90;;;;;;5093351;28;20461;-68
2021/05/01 11:57:56;;;;;;;13.90;11.00;;;16.30;99.90;;;;;;5093734;28;20863;-68
2021/05/01 12:00:33;;;;;;;15.07;11.47;;;16.70;99.90;;;;;;5093005;28;20532;-68
2021/05/01 12:03:01;;;;;;;14.43;10.60;;;15.70;99.90;;;;;;5093674;28;20403;-68
2021/05/01 12:05:35;;;;;;;17.50;11.40;;;15.70;99.90;;;;;;5093072;28;20806;-68
2021/05/01 12:08:18;;;;;;;12.10;10.90;;;15.60;99.90;;;;;;5091786;28;20944;-69
2021/05/01 12:10:47;;;;;;;12.20;10.93;;;15.60;99.90;;;;;;5093322;28;20402;-66
2021/05/01 12:13:24;;;;;;;16.17;10.40;;;16.90;99.90;;;;;;5091473;28;20440;-69
2021/05/01 12:15:54;;;;;;;10.50;9.40;;;17.40;99.90;;;;;;5092842;28;20447;-69
2021/05/01 12:18:21;;;;;;;11.40;10.20;;;17.10;99.90;;;;;;5093266;28;20395;-69
2021/05/01 12:20:53;;;;;;;14.80;10.60;;;17.20;99.90;;;;;;5092716;28;20450;-66
2021/05/01 12:23:48;;;;;;;10.40;9.30;;;17.80;99.90;;;;;;5092933;28;20392;-67
2021/05/01 12:26:32;;;;;;;11.17;10.07;;;17.20;99.90;;;;;;5093398;28;20381;-67
2021/05/01 12:29:26;;;;;;;9.73;8.00;;;16.80;99.90;;;;;;5093037;28;20408;-67
2021/05/01 12:31:51;;;;;;;12.17;9.53;;;17.70;99.90;;;;;;5093025;28;20388;-66
2021/05/01 12:34:22;;;;;;;10.07;8.90;;;17.00;99.90;;;;;;5092988;28;20419;-66
2021/05/01 12:36:50;;;;;;;10.43;9.43;;;17.20;99.90;;;;;;5093264;28;20160;-67
2021/05/01 12:39:17;;;;;;;13.67;9.23;;;17.60;99.90;;;;;;5092845;28;20452;-69
2021/05/01 12:41:49;;;;;;;9.40;8.43;;;17.30;99.90;;;;;;5092137;28;20416;-67